Aeroporto :
LOGIN :

Iscrizione | Disclaimer

   EN    FR    IT 

 










Sommario :    VFR   VFR Marginale   IFR   IFR Intensivo   IFR Molto Intensivo
Visibilità : 
Base nubi : 
>= 8 km
>= 3000ft
5 / 8 km
1000 / 3000 ft
1500m / 5 km
500 / 1000 ft
800 / 1500m
200 / 500 ft
< 800m
< 200 ft
Simboli :   Temporali  Nebbia  Neve Forte  Precipitazioni Forti  Vento > 20 kt
SIGMETs :   Varie  Temporali  Ghiacco  Turbolenza  Onda orograficha  Ceneri Vulcaniche







- Altitudine del aeroporto : 545 ft
- Codice IATA : PZY


LZPP - Piešťany

ULTIMO METAR :
  • 231000Z 13020KT 9999 SCT040 BKN090 14/05 Q1014

METARs OBSOLETI :
  • 230930Z 13019G32KT 9999 SCT040 BKN090 14/04 Q1014
  • 230900Z 13016G27KT 090V160 9999 SCT040 BKN097 15/05 Q1014
  • 230830Z 13017G30KT 090V170 9999 SCT038 BKN100 15/05 Q1014
  • 230800Z 13017G27KT 080V160 9999 FEW035 15/05 Q1013
  • 230730Z 13013G24KT 060V160 9999 FEW035 14/05 Q1013

TAF TAF LZPP
Valido dal 23 a 09 ore il 23 a 18 ore UTC


230800Z 2309/2318 13020KT 9999 SCT040 BKN070
TEMPO 2309/2318 13022G38KT
BECMG 2310/2312 -RA BKN030 OVC050
Nessun NOTAM noto per questo aeroporto.



MetMap, La meteo Aeronautica in un colpo d'occhio ! - Copyright ORBIFLY Dicembre 2007 - Disclaimer

ORBIFLY MET'MAP TEAM :

Programmazione e sviluppo : Alexandra Zaïnal
Concezione e sviluppo : Baudouin d'Aumeries
Co-Programmazione e sviluppo : Marc-Olivier Méhu
Supporto tecnico e logistico : Manuel Goepfert
Aiuto per la traduzione : Arnaldo La Scala

Contatto : metmap@orbifly.com




FONTI E CREDITI :

   NOAA